createdAt,value
2019-01-16T00:00:40.028Z,1002.05
2019-01-16T00:01:39.929Z,1002.18
2019-01-16T00:02:39.840Z,1002.16
2019-01-16T00:03:39.753Z,1002.08
2019-01-16T00:04:39.680Z,1002.12
2019-01-16T00:05:39.591Z,1002.11
2019-01-16T00:06:39.508Z,1002.07
2019-01-16T00:07:39.428Z,1002.08
2019-01-16T00:08:39.341Z,1002.05
2019-01-16T00:09:39.255Z,1002.04
2019-01-16T00:10:39.167Z,1002.04
2019-01-16T00:11:39.080Z,1001.97
2019-01-16T00:12:38.992Z,1002.05
2019-01-16T00:13:38.916Z,1001.99
2019-01-16T00:14:38.833Z,1002.01
2019-01-16T00:15:38.746Z,1002.02
2019-01-16T00:16:38.655Z,1002.03
2019-01-16T00:17:38.580Z,1001.96
2019-01-16T00:18:38.493Z,1002.00
2019-01-16T00:19:38.410Z,1002.02
2019-01-16T00:20:38.318Z,1002.00
2019-01-16T00:21:38.230Z,1002.12
2019-01-16T00:22:38.157Z,1002.08
2019-01-16T00:23:38.082Z,1002.14
2019-01-16T00:24:37.981Z,1002.04
2019-01-16T00:25:37.893Z,1002.11
2019-01-16T00:26:37.819Z,1002.06
2019-01-16T00:27:37.731Z,1002.05
2019-01-16T00:28:37.643Z,1002.12
2019-01-16T00:29:37.558Z,1002.08
2019-01-16T00:30:37.470Z,1002.05
2019-01-16T00:31:37.399Z,1001.97
2019-01-16T00:32:37.306Z,1002.11
2019-01-16T00:33:37.221Z,1002.13
2019-01-16T00:34:37.132Z,1002.11
2019-01-16T00:35:37.106Z,1002.05
2019-01-16T00:36:36.969Z,1002.13
2019-01-16T00:37:36.888Z,1002.12
2019-01-16T00:38:36.795Z,1002.14
2019-01-16T00:39:36.971Z,1002.16
2019-01-16T00:40:36.632Z,1002.19
2019-01-16T00:41:36.547Z,1002.24
2019-01-16T00:42:36.469Z,1002.20
2019-01-16T00:43:36.382Z,1002.23
2019-01-16T00:44:36.297Z,1002.16
2019-01-16T00:45:36.208Z,1002.18
2019-01-16T00:46:36.120Z,1002.10
2019-01-16T00:47:36.036Z,1002.13
2019-01-16T00:48:35.958Z,1002.15
2019-01-16T00:49:35.870Z,1002.19
2019-01-16T00:50:35.791Z,1002.29
2019-01-16T00:51:35.698Z,1002.32
2019-01-16T00:52:35.621Z,1002.29
2019-01-16T00:53:35.534Z,1002.22
2019-01-16T00:54:35.460Z,1002.27
2019-01-16T00:55:35.359Z,1002.27
2019-01-16T00:56:35.288Z,1002.26
2019-01-16T00:57:35.196Z,1002.31
2019-01-16T00:58:35.110Z,1002.20
2019-01-16T00:59:35.322Z,1002.29
2019-01-16T01:00:34.960Z,1002.27
2019-01-16T01:01:34.860Z,1002.33
2019-01-16T01:02:34.772Z,1002.30
2019-01-16T01:03:34.688Z,1002.33
2019-01-16T01:04:34.849Z,1002.35
2019-01-16T01:05:34.522Z,1002.39
2019-01-16T01:06:34.436Z,1002.34
2019-01-16T01:07:34.347Z,1002.49
2019-01-16T01:08:34.262Z,1002.46
2019-01-16T01:09:34.185Z,1002.39
2019-01-16T01:10:34.101Z,1002.37
2019-01-16T01:11:34.011Z,1002.39
2019-01-16T01:12:33.923Z,1002.43
2019-01-16T01:13:33.848Z,1002.43
2019-01-16T01:14:33.762Z,1002.52
2019-01-16T01:15:33.686Z,1002.38
2019-01-16T01:16:33.587Z,1002.48
2019-01-16T01:17:33.511Z,1002.48
2019-01-16T01:18:40.466Z,1002.49
2019-01-16T01:19:33.337Z,1002.50
2019-01-16T01:20:33.248Z,1002.49
2019-01-16T01:21:33.174Z,1002.55
2019-01-16T01:22:33.087Z,1002.57
2019-01-16T01:23:32.999Z,1002.59
2019-01-16T01:24:33.162Z,1002.66
2019-01-16T01:25:32.837Z,1002.58
2019-01-16T01:26:32.753Z,1002.62
2019-01-16T01:27:32.662Z,1002.62
2019-01-16T01:28:32.578Z,1002.48
2019-01-16T01:29:32.499Z,1002.64
2019-01-16T01:30:32.414Z,1002.63
2019-01-16T01:31:32.325Z,1002.60
2019-01-16T01:32:32.238Z,1002.66
2019-01-16T01:33:32.151Z,1002.67
2019-01-16T01:34:32.075Z,1002.65
2019-01-16T01:35:31.990Z,1002.59
2019-01-16T01:36:31.900Z,1002.67
2019-01-16T01:37:31.838Z,1002.55
2019-01-16T01:38:31.738Z,1002.67
2019-01-16T01:39:31.901Z,1002.67
2019-01-16T01:40:31.565Z,1002.66
2019-01-16T01:41:31.478Z,1002.66
2019-01-16T01:42:31.401Z,1002.67
2019-01-16T01:43:31.314Z,1002.62
2019-01-16T01:44:31.227Z,1002.76
2019-01-16T01:45:31.151Z,1002.73
2019-01-16T01:46:31.065Z,1002.73
2019-01-16T01:47:30.977Z,1002.67
2019-01-16T01:48:30.890Z,1002.80
2019-01-16T01:49:30.815Z,1002.75
2019-01-16T01:50:30.727Z,1002.76
2019-01-16T01:51:30.641Z,1002.78
2019-01-16T01:52:30.564Z,1002.86
2019-01-16T01:53:30.477Z,1002.72
2019-01-16T01:54:30.390Z,1002.86
2019-01-16T01:55:30.302Z,1002.88
2019-01-16T01:56:30.227Z,1002.88
2019-01-16T01:57:30.141Z,1002.91
2019-01-16T01:58:30.065Z,1002.90
2019-01-16T01:59:29.968Z,1002.88
2019-01-16T02:00:29.878Z,1002.97
2019-01-16T02:01:29.802Z,1002.89
2019-01-16T02:02:29.718Z,1002.93
2019-01-16T02:03:29.629Z,1002.88
2019-01-16T02:04:29.792Z,1002.86
2019-01-16T02:05:29.467Z,1002.96
2019-01-16T02:06:29.378Z,1002.90
2019-01-16T02:07:29.292Z,1002.96
2019-01-16T02:08:29.204Z,1003.01
2019-01-16T02:09:29.129Z,1002.98
2019-01-16T02:10:29.042Z,1003.06
2019-01-16T02:11:28.966Z,1002.99
2019-01-16T02:12:28.867Z,1003.07
2019-01-16T02:13:28.792Z,1003.03
2019-01-16T02:14:28.705Z,1003.06
2019-01-16T02:15:28.617Z,1002.96
2019-01-16T02:16:28.531Z,1003.10
2019-01-16T02:17:28.456Z,1003.11
2019-01-16T02:18:28.368Z,1003.09
2019-01-16T02:19:28.280Z,1003.15
2019-01-16T02:20:28.193Z,1003.14
2019-01-16T02:21:28.120Z,1003.16
2019-01-16T02:22:28.030Z,1003.15
2019-01-16T02:23:27.945Z,1003.16
2019-01-16T02:24:28.105Z,1003.15
2019-01-16T02:25:27.782Z,1003.15
2019-01-16T02:26:27.695Z,1003.11
2019-01-16T02:27:27.606Z,1003.22
2019-01-16T02:28:27.522Z,1003.28
2019-01-16T02:29:27.445Z,1003.21
2019-01-16T02:30:27.356Z,1003.29
2019-01-16T02:31:27.271Z,1003.27
2019-01-16T02:32:27.183Z,1003.35
2019-01-16T02:33:27.110Z,1003.31
2019-01-16T02:34:27.021Z,1003.31
2019-01-16T02:35:26.931Z,1003.28
2019-01-16T02:36:26.845Z,1003.28
2019-01-16T02:37:26.771Z,1003.28
2019-01-16T02:38:26.685Z,1003.29
2019-01-16T02:39:26.600Z,1003.31
2019-01-16T02:40:26.511Z,1003.33
2019-01-16T02:41:26.435Z,1003.26
2019-01-16T02:42:26.347Z,1003.34
2019-01-16T02:43:26.257Z,1003.29
2019-01-16T02:44:26.182Z,1003.36
2019-01-16T02:45:26.098Z,1003.37
2019-01-16T02:46:26.009Z,1003.29
2019-01-16T02:47:25.921Z,1003.33
2019-01-16T02:48:25.863Z,1003.34
2019-01-16T02:49:25.758Z,1003.31
2019-01-16T02:50:25.677Z,1003.32
2019-01-16T02:51:25.583Z,1003.34
2019-01-16T02:52:25.521Z,1003.34
2019-01-16T02:53:25.423Z,1003.34
2019-01-16T02:54:25.334Z,1003.30
2019-01-16T02:55:25.249Z,1003.42
2019-01-16T02:56:25.172Z,1003.31
2019-01-16T02:57:25.085Z,1003.33
2019-01-16T02:58:24.997Z,1003.32
2019-01-16T02:59:24.922Z,1003.38
2019-01-16T03:00:24.834Z,1003.36
2019-01-16T03:01:24.749Z,1003.33
2019-01-16T03:02:24.662Z,1003.39
2019-01-16T03:03:24.574Z,1003.38
2019-01-16T03:04:24.787Z,1003.39
2019-01-16T03:05:24.410Z,1003.40
2019-01-16T03:06:24.324Z,1003.36
2019-01-16T03:07:24.247Z,1003.39
2019-01-16T03:08:24.160Z,1003.35
2019-01-16T03:09:24.073Z,1003.36
2019-01-16T03:10:23.985Z,1003.42
2019-01-16T03:11:23.910Z,1003.45
2019-01-16T03:12:23.811Z,1003.42
2019-01-16T03:13:23.747Z,1003.44
2019-01-16T03:14:23.649Z,1003.42
2019-01-16T03:15:23.561Z,1003.41
2019-01-16T03:16:23.475Z,1003.39
2019-01-16T03:17:23.399Z,1003.42
2019-01-16T03:18:23.311Z,1003.42
2019-01-16T03:19:23.227Z,1003.44
2019-01-16T03:20:23.152Z,1003.47
2019-01-16T03:21:23.061Z,1003.42
2019-01-16T03:22:22.974Z,1003.37
2019-01-16T03:23:22.887Z,1003.39
2019-01-16T03:24:22.811Z,1003.42
2019-01-16T03:25:22.712Z,1003.37
2019-01-16T03:26:22.651Z,1003.38
2019-01-16T03:27:22.551Z,1003.41
2019-01-16T03:28:22.462Z,1003.38
2019-01-16T03:29:22.376Z,1003.45
2019-01-16T03:30:22.302Z,1003.46
2019-01-16T03:31:22.234Z,1003.43
2019-01-16T03:32:22.128Z,1003.44
2019-01-16T03:33:22.038Z,1003.43
2019-01-16T03:34:21.962Z,1003.46
2019-01-16T03:35:21.876Z,1003.44
2019-01-16T03:36:21.788Z,1003.49
2019-01-16T03:37:21.701Z,1003.38
2019-01-16T03:38:21.618Z,1003.42
2019-01-16T03:39:21.788Z,1003.38
2019-01-16T03:40:21.451Z,1003.39
2019-01-16T03:41:21.363Z,1003.42
2019-01-16T03:42:21.277Z,1003.36
2019-01-16T03:43:21.202Z,1003.38
2019-01-16T03:44:21.114Z,1003.40
2019-01-16T03:45:21.028Z,1003.39
2019-01-16T03:46:20.939Z,1003.36
2019-01-16T03:47:20.852Z,1003.38
2019-01-16T03:48:20.778Z,1003.41
2019-01-16T03:49:20.689Z,1003.36
2019-01-16T03:50:20.603Z,1003.34
2019-01-16T03:51:20.514Z,1003.35
2019-01-16T03:52:20.442Z,1003.32
2019-01-16T03:53:20.356Z,1003.31
2019-01-16T03:54:20.265Z,1003.29
2019-01-16T03:55:20.179Z,1003.35
2019-01-16T03:56:20.093Z,1003.32
2019-01-16T03:57:20.015Z,1003.34
2019-01-16T03:58:19.932Z,1003.35
2019-01-16T03:59:20.153Z,1003.33
2019-01-16T04:00:19.757Z,1003.32
2019-01-16T04:01:19.667Z,1003.30
2019-01-16T04:02:19.592Z,1003.32
2019-01-16T04:03:19.504Z,1003.29
2019-01-16T04:04:19.416Z,1003.31
2019-01-16T04:05:19.332Z,1003.26
2019-01-16T04:06:19.254Z,1003.27
2019-01-16T04:07:19.166Z,1003.24
2019-01-16T04:08:19.082Z,1003.25
2019-01-16T04:09:19.006Z,1003.23
2019-01-16T04:10:18.917Z,1003.27
2019-01-16T04:11:18.836Z,1003.23
2019-01-16T04:12:18.743Z,1003.22
2019-01-16T04:13:18.658Z,1003.18
2019-01-16T04:14:18.567Z,1003.20
2019-01-16T04:15:18.505Z,1003.19
2019-01-16T04:16:18.405Z,1003.23
2019-01-16T04:17:18.319Z,1003.18
2019-01-16T04:18:18.235Z,1003.19
2019-01-16T04:19:21.890Z,1003.19
2019-01-16T04:20:18.067Z,1003.18
2019-01-16T04:21:17.983Z,1003.17
2019-01-16T04:22:17.893Z,1003.20
2019-01-16T04:23:17.806Z,1003.15
2019-01-16T04:24:17.734Z,1003.17
2019-01-16T04:25:17.644Z,1003.13
2019-01-16T04:26:17.556Z,1003.13
2019-01-16T04:27:17.473Z,1003.15
2019-01-16T04:28:17.394Z,1003.19
2019-01-16T04:29:17.307Z,1003.16
2019-01-16T04:30:17.219Z,1003.23
2019-01-16T04:31:17.138Z,1003.25
2019-01-16T04:32:17.045Z,1003.13
2019-01-16T04:33:16.969Z,1003.18
2019-01-16T04:34:16.884Z,1003.13
2019-01-16T04:35:16.794Z,1003.16
2019-01-16T04:36:16.707Z,1003.13
2019-01-16T04:37:16.622Z,1003.12
2019-01-16T04:38:16.544Z,1003.11
2019-01-16T04:39:16.457Z,1003.12
2019-01-16T04:40:16.370Z,1003.09
2019-01-16T04:41:16.286Z,1003.14
2019-01-16T04:42:16.207Z,1003.14
2019-01-16T04:43:16.120Z,1003.08
2019-01-16T04:44:16.033Z,1003.10
2019-01-16T04:45:15.945Z,1003.10
2019-01-16T04:46:15.870Z,1003.08
2019-01-16T04:47:15.785Z,1003.05
2019-01-16T04:48:15.696Z,1003.09
2019-01-16T04:49:15.609Z,1003.09
2019-01-16T04:50:15.523Z,1003.06
2019-01-16T04:51:15.448Z,1003.06
2019-01-16T04:52:15.368Z,1003.09
2019-01-16T04:53:15.273Z,1003.13
2019-01-16T04:54:15.184Z,1003.05
2019-01-16T04:55:15.109Z,1003.03
2019-01-16T04:56:15.022Z,1003.03
2019-01-16T04:57:14.935Z,1003.04
2019-01-16T04:58:14.860Z,1003.08
2019-01-16T04:59:15.071Z,1003.07
2019-01-16T05:00:14.684Z,1003.07
2019-01-16T05:01:14.599Z,1003.06
2019-01-16T05:02:14.516Z,1003.04
2019-01-16T05:03:14.426Z,1002.99
2019-01-16T05:04:14.349Z,1003.05
2019-01-16T05:05:14.261Z,1003.01
2019-01-16T05:06:14.174Z,1003.04
2019-01-16T05:07:14.086Z,1002.98
2019-01-16T05:08:14.012Z,1003.04
2019-01-16T05:09:13.923Z,1003.07
2019-01-16T05:10:13.849Z,1003.03
2019-01-16T05:11:13.747Z,1002.99
2019-01-16T05:12:13.663Z,1002.95
2019-01-16T05:13:13.589Z,1002.94
2019-01-16T05:14:13.499Z,1002.99
2019-01-16T05:15:13.411Z,1002.96
2019-01-16T05:16:13.323Z,1002.94
2019-01-16T05:17:13.249Z,1002.96
2019-01-16T05:18:13.162Z,1002.96
2019-01-16T05:19:13.074Z,1002.94
2019-01-16T05:20:12.987Z,1002.92
2019-01-16T05:21:12.899Z,1002.92
2019-01-16T05:22:12.836Z,1002.97
2019-01-16T05:23:12.738Z,1002.95
2019-01-16T05:24:12.899Z,1003.03
2019-01-16T05:25:12.566Z,1002.95
2019-01-16T05:26:12.488Z,1002.96
2019-01-16T05:27:12.400Z,1002.94
2019-01-16T05:28:12.318Z,1002.97
2019-01-16T05:29:12.226Z,1002.91
2019-01-16T05:30:12.150Z,1002.96
2019-01-16T05:31:12.064Z,1002.96
2019-01-16T05:32:11.975Z,1002.89
2019-01-16T05:33:11.889Z,1002.98
2019-01-16T05:34:11.802Z,1002.92
2019-01-16T05:35:11.727Z,1003.02
2019-01-16T05:36:11.640Z,1002.99
2019-01-16T05:37:11.550Z,1002.98
2019-01-16T05:38:11.466Z,1002.98
2019-01-16T05:39:11.389Z,1003.02
2019-01-16T05:40:11.302Z,1003.00
2019-01-16T05:41:11.214Z,1003.05
2019-01-16T05:42:11.131Z,1003.05
2019-01-16T05:43:11.051Z,1003.07
2019-01-16T05:44:12.180Z,1003.08
2019-01-16T05:45:10.878Z,1003.06
2019-01-16T05:46:10.821Z,1003.04
2019-01-16T05:47:10.702Z,1003.09
2019-01-16T05:48:10.629Z,1003.09
2019-01-16T05:49:10.541Z,1003.06
2019-01-16T05:50:10.452Z,1003.09
2019-01-16T05:51:10.366Z,1003.04
2019-01-16T05:52:10.290Z,1003.10
2019-01-16T05:53:10.205Z,1003.11
2019-01-16T05:54:10.116Z,1003.10
2019-01-16T05:55:10.028Z,1003.05
2019-01-16T05:56:09.941Z,1003.10
2019-01-16T05:57:09.867Z,1003.12
2019-01-16T05:58:09.815Z,1003.12
2019-01-16T05:59:09.692Z,1003.14
2019-01-16T06:00:09.602Z,1003.13
2019-01-16T06:01:09.531Z,1003.18
2019-01-16T06:02:09.442Z,1003.15
2019-01-16T06:03:09.353Z,1003.15
2019-01-16T06:04:09.267Z,1003.16
2019-01-16T06:05:09.191Z,1003.22
2019-01-16T06:06:09.104Z,1003.09
2019-01-16T06:07:09.022Z,1003.26
2019-01-16T06:08:08.929Z,1003.17
2019-01-16T06:09:08.844Z,1003.18
2019-01-16T06:10:08.768Z,1003.17
2019-01-16T06:11:08.692Z,1003.16
2019-01-16T06:12:08.592Z,1003.12
2019-01-16T06:13:08.505Z,1003.14
2019-01-16T06:14:08.431Z,1003.11
2019-01-16T06:15:08.344Z,1003.09
2019-01-16T06:16:08.255Z,1003.14
2019-01-16T06:17:08.169Z,1003.06
2019-01-16T06:18:08.081Z,1003.07
2019-01-16T06:19:08.255Z,1003.07
2019-01-16T06:20:07.919Z,1003.09
2019-01-16T06:21:07.830Z,1003.04
2019-01-16T06:22:07.748Z,1003.09
2019-01-16T06:23:07.670Z,1003.14
2019-01-16T06:24:07.581Z,1003.13
2019-01-16T06:25:07.496Z,1003.12
2019-01-16T06:26:07.418Z,1003.16
2019-01-16T06:27:07.331Z,1003.13
2019-01-16T06:28:07.245Z,1003.15
2019-01-16T06:29:07.157Z,1003.16
2019-01-16T06:30:07.081Z,1003.19
2019-01-16T06:31:06.994Z,1003.16
2019-01-16T06:32:06.918Z,1003.18
2019-01-16T06:33:06.819Z,1003.16
2019-01-16T06:34:06.734Z,1003.16
2019-01-16T06:35:06.647Z,1003.15
2019-01-16T06:36:06.573Z,1003.14
2019-01-16T06:37:06.483Z,1003.11
2019-01-16T06:38:06.395Z,1003.17
2019-01-16T06:39:06.307Z,1003.17
2019-01-16T06:40:06.232Z,1003.14
2019-01-16T06:41:06.145Z,1003.16
2019-01-16T06:42:06.057Z,1003.19
2019-01-16T06:43:05.973Z,1003.19
2019-01-16T06:44:06.134Z,1003.14
2019-01-16T06:45:05.809Z,1003.19
2019-01-16T06:46:05.722Z,1003.21
2019-01-16T06:47:05.633Z,1003.19
2019-01-16T06:48:05.547Z,1003.11
2019-01-16T06:49:05.471Z,1003.10
2019-01-16T06:50:05.383Z,1003.12
2019-01-16T06:51:05.297Z,1003.18
2019-01-16T06:52:05.210Z,1003.16
2019-01-16T06:53:05.121Z,1003.22
2019-01-16T06:54:05.047Z,1003.24
2019-01-16T06:55:04.959Z,1003.21
2019-01-16T06:56:04.872Z,1003.23
2019-01-16T06:57:04.785Z,1003.22
2019-01-16T06:58:04.709Z,1003.23
2019-01-16T06:59:04.873Z,1003.24
2019-01-16T07:00:04.534Z,1003.22
2019-01-16T07:01:04.505Z,1003.24
2019-01-16T07:02:04.372Z,1003.29
2019-01-16T07:03:04.287Z,1003.28
2019-01-16T07:04:04.197Z,1003.21
2019-01-16T07:05:04.111Z,1003.23
2019-01-16T07:06:04.027Z,1003.17
2019-01-16T07:07:03.948Z,1003.21
2019-01-16T07:08:03.860Z,1003.20
2019-01-16T07:09:03.774Z,1003.22
2019-01-16T07:10:03.699Z,1003.28
2019-01-16T07:11:03.599Z,1003.26
2019-01-16T07:12:03.526Z,1003.20
2019-01-16T07:13:03.439Z,1003.28
2019-01-16T07:14:03.349Z,1003.32
2019-01-16T07:15:03.261Z,1003.30
2019-01-16T07:16:03.189Z,1003.27
2019-01-16T07:17:03.099Z,1003.31
2019-01-16T07:18:03.013Z,1003.30
2019-01-16T07:19:02.930Z,1003.35
2019-01-16T07:20:09.340Z,1003.33
2019-01-16T07:21:02.762Z,1003.32
2019-01-16T07:22:02.674Z,1003.31
2019-01-16T07:23:02.591Z,1003.34
2019-01-16T07:24:02.750Z,1003.31
2019-01-16T07:25:02.413Z,1003.35
2019-01-16T07:26:02.337Z,1003.35
2019-01-16T07:27:02.251Z,1003.32
2019-01-16T07:28:02.163Z,1003.33
2019-01-16T07:29:02.077Z,1003.32
2019-01-16T07:30:02.002Z,1003.25
2019-01-16T07:31:01.912Z,1003.31
2019-01-16T07:32:01.826Z,1003.31
2019-01-16T07:33:01.751Z,1003.32
2019-01-16T07:34:01.663Z,1003.32
2019-01-16T07:35:01.577Z,1003.34
2019-01-16T07:36:01.501Z,1003.34
2019-01-16T07:37:01.402Z,1003.33
2019-01-16T07:38:01.313Z,1003.35
2019-01-16T07:39:01.241Z,1003.33
2019-01-16T07:40:01.154Z,1003.31
2019-01-16T07:41:01.064Z,1003.37
2019-01-16T07:42:00.976Z,1003.32
2019-01-16T07:43:00.890Z,1003.32
2019-01-16T07:44:00.813Z,1003.33
2019-01-16T07:45:00.729Z,1003.29
2019-01-16T07:46:00.653Z,1003.34
2019-01-16T07:47:00.553Z,1003.35
2019-01-16T07:48:00.483Z,1003.36
2019-01-16T07:49:00.389Z,1003.35
2019-01-16T07:50:00.304Z,1003.30
2019-01-16T07:51:00.215Z,1003.36
2019-01-16T07:52:00.142Z,1003.35
2019-01-16T07:53:00.053Z,1003.36
2019-01-16T07:53:59.965Z,1003.32
2019-01-16T07:54:59.880Z,1003.31
2019-01-16T07:55:59.793Z,1003.31
2019-01-16T07:56:59.715Z,1003.33
2019-01-16T07:57:59.633Z,1003.40
2019-01-16T07:58:59.798Z,1003.33
2019-01-16T07:59:59.454Z,1003.28
2019-01-16T08:00:59.378Z,1003.33
2019-01-16T08:01:59.291Z,1003.32
2019-01-16T08:02:59.779Z,1003.38
2019-01-16T08:03:59.116Z,1003.30
2019-01-16T08:04:59.041Z,1003.36
2019-01-16T08:05:58.955Z,1003.32
2019-01-16T08:06:58.872Z,1003.34
2019-01-16T08:07:58.780Z,1003.33
2019-01-16T08:08:58.701Z,1003.31
2019-01-16T08:09:58.617Z,1003.27
2019-01-16T08:10:58.530Z,1003.30
2019-01-16T08:11:58.442Z,1003.31
2019-01-16T08:12:58.355Z,1003.32
2019-01-16T08:13:58.280Z,1003.31
2019-01-16T08:14:58.193Z,1003.29
2019-01-16T08:15:58.148Z,1003.30
2019-01-16T08:16:58.017Z,1003.32
2019-01-16T08:17:57.942Z,1003.30
2019-01-16T08:18:58.105Z,1003.31
2019-01-16T08:19:57.771Z,1003.27
2019-01-16T08:20:57.681Z,1003.29
2019-01-16T08:21:57.593Z,1003.27
2019-01-16T08:22:57.518Z,1003.23
2019-01-16T08:23:57.432Z,1003.27
2019-01-16T08:24:57.345Z,1003.25
2019-01-16T08:25:57.257Z,1003.29
2019-01-16T08:26:57.182Z,1003.24
2019-01-16T08:27:57.093Z,1003.22
2019-01-16T08:28:57.010Z,1003.22
2019-01-16T08:29:56.932Z,1003.20
2019-01-16T08:30:56.844Z,1003.26
2019-01-16T08:31:56.758Z,1003.25
2019-01-16T08:32:56.669Z,1003.22
2019-01-16T08:33:56.588Z,1003.29
2019-01-16T08:34:56.508Z,1003.27
2019-01-16T08:35:56.419Z,1003.36
2019-01-16T08:36:56.332Z,1003.28
2019-01-16T08:37:56.246Z,1003.33
2019-01-16T08:38:56.170Z,1003.28
2019-01-16T08:39:56.083Z,1003.31
2019-01-16T08:40:55.995Z,1003.33
2019-01-16T08:41:55.908Z,1003.34
2019-01-16T08:42:55.834Z,1003.36
2019-01-16T08:43:55.745Z,1003.36
2019-01-16T08:44:55.658Z,1003.35
2019-01-16T08:45:55.571Z,1003.33
2019-01-16T08:46:55.495Z,1003.32
2019-01-16T08:47:55.409Z,1003.29
2019-01-16T08:48:55.325Z,1003.30
2019-01-16T08:49:55.234Z,1003.28
2019-01-16T08:50:55.159Z,1003.32
2019-01-16T08:51:55.071Z,1003.35
2019-01-16T08:52:54.996Z,1003.36
2019-01-16T08:53:54.896Z,1003.32
2019-01-16T08:54:54.834Z,1003.37
2019-01-16T08:55:54.736Z,1003.34
2019-01-16T08:56:54.726Z,1003.27
2019-01-16T08:57:54.561Z,1003.35
2019-01-16T08:58:54.736Z,1003.32
2019-01-16T08:59:54.397Z,1003.34
2019-01-16T09:00:54.310Z,1003.37
2019-01-16T09:01:54.235Z,1003.35
2019-01-16T09:02:54.147Z,1003.34
2019-01-16T09:03:54.061Z,1003.33
2019-01-16T09:04:53.973Z,1003.29
2019-01-16T09:05:53.897Z,1003.30
2019-01-16T09:06:53.800Z,1003.37
2019-01-16T09:07:53.736Z,1003.28
2019-01-16T09:08:53.637Z,1003.27
2019-01-16T09:09:53.548Z,1003.30
2019-01-16T09:10:53.473Z,1003.31
2019-01-16T09:11:53.387Z,1003.29
2019-01-16T09:12:53.299Z,1003.30
2019-01-16T09:13:53.212Z,1003.32
2019-01-16T09:14:53.138Z,1003.27
2019-01-16T09:15:53.049Z,1003.26
2019-01-16T09:16:52.962Z,1003.26
2019-01-16T09:17:52.873Z,1003.28
2019-01-16T09:18:53.050Z,1003.23
2019-01-16T09:19:52.713Z,1003.26
2019-01-16T09:20:52.625Z,1003.31
2019-01-16T09:21:52.537Z,1003.27
2019-01-16T09:22:52.453Z,1003.29
2019-01-16T09:23:52.374Z,1003.26
2019-01-16T09:24:52.288Z,1003.31
2019-01-16T09:25:52.200Z,1003.33
2019-01-16T09:26:52.113Z,1003.31
2019-01-16T09:27:52.037Z,1003.35
2019-01-16T09:28:51.950Z,1003.35
2019-01-16T09:29:51.863Z,1003.33
2019-01-16T09:30:51.776Z,1003.35
2019-01-16T09:31:51.701Z,1003.33
2019-01-16T09:32:51.613Z,1003.33
2019-01-16T09:33:51.525Z,1003.35
2019-01-16T09:34:51.439Z,1003.32
2019-01-16T09:35:51.364Z,1003.39
2019-01-16T09:36:51.276Z,1003.35
2019-01-16T09:37:51.189Z,1003.35
2019-01-16T09:38:51.103Z,1003.36
2019-01-16T09:39:51.026Z,1003.34
2019-01-16T09:40:50.940Z,1003.31
2019-01-16T09:41:50.856Z,1003.29
2019-01-16T09:42:50.780Z,1003.31
2019-01-16T09:43:50.690Z,1003.35
2019-01-16T09:44:50.602Z,1003.29
2019-01-16T09:45:50.515Z,1003.29
2019-01-16T09:46:50.441Z,1003.33
2019-01-16T09:47:50.352Z,1003.29
2019-01-16T09:48:50.265Z,1003.25
2019-01-16T09:49:50.177Z,1003.28
2019-01-16T09:50:50.104Z,1003.24
2019-01-16T09:51:50.015Z,1003.25
2019-01-16T09:52:49.931Z,1003.27
2019-01-16T09:53:50.877Z,1003.25
2019-01-16T09:54:49.767Z,1003.26
2019-01-16T09:55:49.678Z,1003.27
2019-01-16T09:56:49.590Z,1003.26
2019-01-16T09:57:49.516Z,1003.23
2019-01-16T09:58:49.417Z,1003.19
2019-01-16T09:59:49.345Z,1003.23
2019-01-16T10:00:49.255Z,1003.20
2019-01-16T10:01:49.168Z,1003.23
2019-01-16T10:02:49.079Z,1003.24
2019-01-16T10:03:49.017Z,1003.20
2019-01-16T10:04:48.918Z,1003.22
2019-01-16T10:05:48.829Z,1003.19
2019-01-16T10:06:48.748Z,1003.20
2019-01-16T10:07:48.667Z,1003.15
2019-01-16T10:08:48.581Z,1003.11
2019-01-16T10:09:48.494Z,1003.12
2019-01-16T10:10:48.422Z,1003.10
2019-01-16T10:11:48.329Z,1003.06
2019-01-16T10:12:48.248Z,1003.05
2019-01-16T10:13:48.157Z,1003.09
2019-01-16T10:14:48.068Z,1003.14
2019-01-16T10:15:47.980Z,1003.10
2019-01-16T10:16:47.906Z,1003.06
2019-01-16T10:17:47.818Z,1003.08
2019-01-16T10:18:47.730Z,1003.11
2019-01-16T10:19:47.679Z,1003.09
2019-01-16T10:20:47.570Z,1003.07
2019-01-16T10:21:47.481Z,1003.07
2019-01-16T10:22:47.394Z,1003.08
2019-01-16T10:23:48.607Z,1002.99
2019-01-16T10:24:47.220Z,1003.04
2019-01-16T10:25:47.144Z,1003.00
2019-01-16T10:26:47.057Z,1002.97
2019-01-16T10:27:46.969Z,1002.96
2019-01-16T10:28:46.882Z,1002.97
2019-01-16T10:29:46.819Z,1002.93
2019-01-16T10:30:46.719Z,1002.91
2019-01-16T10:31:46.632Z,1002.90
2019-01-16T10:32:46.544Z,1002.92
2019-01-16T10:33:46.500Z,1002.90
2019-01-16T10:34:46.382Z,1002.92
2019-01-16T10:35:46.297Z,1002.91
2019-01-16T10:36:46.220Z,1002.88
2019-01-16T10:37:46.132Z,1002.84
2019-01-16T10:38:46.049Z,1002.86
2019-01-16T10:39:45.958Z,1002.86
2019-01-16T10:40:45.871Z,1002.85
2019-01-16T10:41:45.796Z,1002.86
2019-01-16T10:42:45.709Z,1002.84
2019-01-16T10:43:45.622Z,1002.84
2019-01-16T10:44:45.533Z,1002.77
2019-01-16T10:45:45.459Z,1002.78
2019-01-16T10:46:45.389Z,1002.80
2019-01-16T10:47:45.283Z,1002.72
2019-01-16T10:48:49.705Z,1002.74
2019-01-16T10:49:45.123Z,1002.73
2019-01-16T10:50:45.046Z,1002.72
2019-01-16T10:51:44.947Z,1002.69
2019-01-16T10:52:44.860Z,1002.71
2019-01-16T10:53:44.787Z,1002.72
2019-01-16T10:54:44.697Z,1002.64
2019-01-16T10:55:44.612Z,1002.68
2019-01-16T10:56:44.522Z,1002.64
2019-01-16T10:57:44.449Z,1002.71
2019-01-16T10:58:44.359Z,1002.66
2019-01-16T10:59:44.276Z,1002.66
2019-01-16T11:00:44.185Z,1002.65
2019-01-16T11:01:44.110Z,1002.63
2019-01-16T11:02:44.022Z,1002.64
2019-01-16T11:03:43.935Z,1002.69
2019-01-16T11:04:43.851Z,1002.66
2019-01-16T11:05:43.774Z,1002.62
2019-01-16T11:06:43.685Z,1002.62
2019-01-16T11:07:43.598Z,1002.62
2019-01-16T11:08:43.511Z,1002.59
2019-01-16T11:09:43.448Z,1002.58
2019-01-16T11:10:43.349Z,1002.58
2019-01-16T11:11:43.261Z,1002.57
2019-01-16T11:12:43.185Z,1002.55
2019-01-16T11:13:43.100Z,1002.47
2019-01-16T11:14:43.011Z,1002.52
2019-01-16T11:15:42.925Z,1002.47
2019-01-16T11:16:42.849Z,1002.48
2019-01-16T11:17:42.761Z,1002.45
2019-01-16T11:18:42.675Z,1002.47
2019-01-16T11:19:42.587Z,1002.45
2019-01-16T11:20:42.516Z,1002.44
2019-01-16T11:21:42.426Z,1002.41
2019-01-16T11:22:42.338Z,1002.40
2019-01-16T11:23:42.253Z,1002.40
2019-01-16T11:24:42.175Z,1002.40
2019-01-16T11:25:42.087Z,1002.32
2019-01-16T11:26:42.001Z,1002.38
2019-01-16T11:27:41.926Z,1002.38
2019-01-16T11:28:41.838Z,1002.37
2019-01-16T11:29:41.752Z,1002.34
2019-01-16T11:30:41.664Z,1002.34
2019-01-16T11:31:41.588Z,1002.32
2019-01-16T11:32:41.501Z,1002.31
2019-01-16T11:33:41.413Z,1002.29
2019-01-16T11:34:41.338Z,1002.28
2019-01-16T11:35:41.252Z,1002.30
2019-01-16T11:36:41.163Z,1002.28
2019-01-16T11:37:41.077Z,1002.32
2019-01-16T11:38:41.002Z,1002.25
2019-01-16T11:39:40.913Z,1002.22
2019-01-16T11:40:40.828Z,1002.24
2019-01-16T11:41:40.740Z,1002.30
2019-01-16T11:42:40.664Z,1002.24
2019-01-16T11:43:40.577Z,1002.23
2019-01-16T11:44:40.490Z,1002.22
2019-01-16T11:45:40.414Z,1002.17
2019-01-16T11:46:40.327Z,1002.22
2019-01-16T11:47:40.244Z,1002.19
2019-01-16T11:48:40.175Z,1002.12
2019-01-16T11:49:40.078Z,1002.11
2019-01-16T11:50:39.990Z,1002.16
2019-01-16T11:51:39.903Z,1002.18
2019-01-16T11:52:39.829Z,1002.18
2019-01-16T11:53:39.740Z,1002.15
2019-01-16T11:54:39.654Z,1002.15
2019-01-16T11:55:39.579Z,1002.16
2019-01-16T11:56:39.491Z,1002.18
2019-01-16T11:57:39.404Z,1002.14
2019-01-16T11:58:39.318Z,1002.11
2019-01-16T11:59:39.244Z,1002.13
2019-01-16T12:00:39.156Z,1002.12
2019-01-16T12:01:39.066Z,1002.14
2019-01-16T12:02:38.991Z,1002.11
2019-01-16T12:03:38.904Z,1002.08
2019-01-16T12:04:38.829Z,1002.07